sensor_id;sensor_type;location;lat;lon;timestamp;P1;durP1;ratioP1;P2;durP2;ratioP2
76786;SDS011;65739;51.482;5.702;2023-11-19T00:00:29;9.32;;;6.55;;
76786;SDS011;65739;51.482;5.702;2023-11-19T00:02:55;9.43;;;6.32;;
76786;SDS011;65739;51.482;5.702;2023-11-19T00:05:20;11.88;;;5.80;;
76786;SDS011;65739;51.482;5.702;2023-11-19T00:07:46;10.63;;;6.10;;
76786;SDS011;65739;51.482;5.702;2023-11-19T00:10:13;14.70;;;6.75;;
76786;SDS011;65739;51.482;5.702;2023-11-19T00:12:41;11.82;;;5.35;;
76786;SDS011;65739;51.482;5.702;2023-11-19T00:15:09;12.95;;;5.85;;
76786;SDS011;65739;51.482;5.702;2023-11-19T00:17:42;9.38;;;4.82;;
76786;SDS011;65739;51.482;5.702;2023-11-19T00:20:12;8.52;;;4.47;;
76786;SDS011;65739;51.482;5.702;2023-11-19T00:22:39;15.30;;;4.63;;
76786;SDS011;65739;51.482;5.702;2023-11-19T00:25:05;8.93;;;4.82;;
76786;SDS011;65739;51.482;5.702;2023-11-19T00:27:31;13.93;;;4.28;;
76786;SDS011;65739;51.482;5.702;2023-11-19T00:29:57;9.90;;;4.03;;
76786;SDS011;65739;51.482;5.702;2023-11-19T00:32:23;9.75;;;3.80;;
76786;SDS011;65739;51.482;5.702;2023-11-19T00:34:49;7.03;;;3.40;;
76786;SDS011;65739;51.482;5.702;2023-11-19T00:37:15;7.20;;;3.45;;
76786;SDS011;65739;51.482;5.702;2023-11-19T00:39:41;9.02;;;3.70;;
76786;SDS011;65739;51.482;5.702;2023-11-19T00:42:07;4.82;;;3.22;;
76786;SDS011;65739;51.482;5.702;2023-11-19T00:44:32;6.97;;;3.33;;
76786;SDS011;65739;51.482;5.702;2023-11-19T00:46:58;8.35;;;3.22;;
76786;SDS011;65739;51.482;5.702;2023-11-19T00:49:25;6.40;;;3.00;;
76786;SDS011;65739;51.482;5.702;2023-11-19T00:51:50;5.90;;;3.30;;
76786;SDS011;65739;51.482;5.702;2023-11-19T00:54:16;6.97;;;3.50;;
76786;SDS011;65739;51.482;5.702;2023-11-19T00:56:41;8.48;;;2.88;;
76786;SDS011;65739;51.482;5.702;2023-11-19T00:59:07;6.57;;;3.00;;
76786;SDS011;65739;51.482;5.702;2023-11-19T01:01:33;7.15;;;2.58;;
76786;SDS011;65739;51.482;5.702;2023-11-19T01:03:58;6.18;;;2.63;;
76786;SDS011;65739;51.482;5.702;2023-11-19T01:06:31;7.50;;;2.45;;
76786;SDS011;65739;51.482;5.702;2023-11-19T01:08:57;3.53;;;2.08;;
76786;SDS011;65739;51.482;5.702;2023-11-19T01:11:23;8.02;;;2.20;;
76786;SDS011;65739;51.482;5.702;2023-11-19T01:13:50;10.93;;;2.67;;
76786;SDS011;65739;51.482;5.702;2023-11-19T01:16:16;6.90;;;2.70;;
76786;SDS011;65739;51.482;5.702;2023-11-19T01:18:42;8.90;;;2.38;;
76786;SDS011;65739;51.482;5.702;2023-11-19T01:21:07;10.07;;;2.72;;
76786;SDS011;65739;51.482;5.702;2023-11-19T01:23:33;10.02;;;2.80;;
76786;SDS011;65739;51.482;5.702;2023-11-19T01:25:59;8.68;;;2.15;;
76786;SDS011;65739;51.482;5.702;2023-11-19T01:28:25;12.07;;;2.60;;
76786;SDS011;65739;51.482;5.702;2023-11-19T01:30:51;9.48;;;2.60;;
76786;SDS011;65739;51.482;5.702;2023-11-19T01:33:17;5.43;;;2.78;;
76786;SDS011;65739;51.482;5.702;2023-11-19T01:35:42;11.85;;;2.80;;
76786;SDS011;65739;51.482;5.702;2023-11-19T01:38:08;15.80;;;2.83;;
76786;SDS011;65739;51.482;5.702;2023-11-19T01:40:34;12.57;;;2.58;;
76786;SDS011;65739;51.482;5.702;2023-11-19T01:43:01;11.10;;;2.72;;
76786;SDS011;65739;51.482;5.702;2023-11-19T01:45:28;15.32;;;2.80;;
76786;SDS011;65739;51.482;5.702;2023-11-19T01:47:58;15.23;;;2.75;;
76786;SDS011;65739;51.482;5.702;2023-11-19T01:50:27;9.60;;;2.25;;
76786;SDS011;65739;51.482;5.702;2023-11-19T01:52:53;11.43;;;2.60;;
76786;SDS011;65739;51.482;5.702;2023-11-19T01:55:19;15.98;;;2.63;;
76786;SDS011;65739;51.482;5.702;2023-11-19T01:57:46;8.70;;;2.15;;
76786;SDS011;65739;51.482;5.702;2023-11-19T02:00:14;11.15;;;2.45;;
76786;SDS011;65739;51.482;5.702;2023-11-19T02:02:41;9.00;;;2.30;;
76786;SDS011;65739;51.482;5.702;2023-11-19T02:05:08;15.90;;;3.13;;
76786;SDS011;65739;51.482;5.702;2023-11-19T02:07:34;12.07;;;2.83;;
76786;SDS011;65739;51.482;5.702;2023-11-19T02:09:59;14.48;;;2.28;;
76786;SDS011;65739;51.482;5.702;2023-11-19T02:12:27;15.85;;;2.47;;
76786;SDS011;65739;51.482;5.702;2023-11-19T02:14:53;9.65;;;2.85;;
76786;SDS011;65739;51.482;5.702;2023-11-19T02:17:26;10.80;;;2.53;;
76786;SDS011;65739;51.482;5.702;2023-11-19T02:19:59;12.67;;;3.30;;
76786;SDS011;65739;51.482;5.702;2023-11-19T02:22:25;16.67;;;2.97;;
76786;SDS011;65739;51.482;5.702;2023-11-19T02:24:51;11.85;;;3.00;;
76786;SDS011;65739;51.482;5.702;2023-11-19T02:27:28;8.43;;;2.65;;
76786;SDS011;65739;51.482;5.702;2023-11-19T02:29:56;8.15;;;2.70;;
76786;SDS011;65739;51.482;5.702;2023-11-19T02:32:22;11.40;;;2.75;;
76786;SDS011;65739;51.482;5.702;2023-11-19T02:34:48;8.88;;;2.15;;
76786;SDS011;65739;51.482;5.702;2023-11-19T02:37:14;13.70;;;2.45;;
76786;SDS011;65739;51.482;5.702;2023-11-19T02:39:40;13.38;;;2.72;;
76786;SDS011;65739;51.482;5.702;2023-11-19T02:42:06;18.27;;;3.42;;
76786;SDS011;65739;51.482;5.702;2023-11-19T02:44:33;11.65;;;3.35;;
76786;SDS011;65739;51.482;5.702;2023-11-19T02:46:59;10.13;;;2.90;;
76786;SDS011;65739;51.482;5.702;2023-11-19T02:49:25;18.50;;;3.58;;
76786;SDS011;65739;51.482;5.702;2023-11-19T02:51:51;13.80;;;3.10;;
76786;SDS011;65739;51.482;5.702;2023-11-19T02:54:16;19.20;;;3.38;;
76786;SDS011;65739;51.482;5.702;2023-11-19T02:56:42;19.60;;;3.22;;
76786;SDS011;65739;51.482;5.702;2023-11-19T02:59:08;18.75;;;3.15;;
76786;SDS011;65739;51.482;5.702;2023-11-19T03:01:43;16.73;;;3.42;;
76786;SDS011;65739;51.482;5.702;2023-11-19T03:04:13;15.70;;;3.17;;
76786;SDS011;65739;51.482;5.702;2023-11-19T03:06:42;19.52;;;3.17;;
76786;SDS011;65739;51.482;5.702;2023-11-19T03:09:07;23.75;;;3.78;;
76786;SDS011;65739;51.482;5.702;2023-11-19T03:11:35;21.15;;;3.03;;
76786;SDS011;65739;51.482;5.702;2023-11-19T03:14:01;26.85;;;3.70;;
76786;SDS011;65739;51.482;5.702;2023-11-19T03:16:28;28.38;;;3.58;;
76786;SDS011;65739;51.482;5.702;2023-11-19T03:18:54;25.52;;;3.83;;
76786;SDS011;65739;51.482;5.702;2023-11-19T03:21:26;18.70;;;3.10;;
76786;SDS011;65739;51.482;5.702;2023-11-19T03:23:53;21.45;;;3.08;;
76786;SDS011;65739;51.482;5.702;2023-11-19T03:26:18;21.02;;;3.15;;
76786;SDS011;65739;51.482;5.702;2023-11-19T03:28:44;25.73;;;3.80;;
76786;SDS011;65739;51.482;5.702;2023-11-19T03:31:09;27.45;;;5.20;;
76786;SDS011;65739;51.482;5.702;2023-11-19T03:33:35;25.88;;;4.30;;
76786;SDS011;65739;51.482;5.702;2023-11-19T03:36:02;25.17;;;4.28;;
76786;SDS011;65739;51.482;5.702;2023-11-19T03:38:28;31.00;;;3.15;;
76786;SDS011;65739;51.482;5.702;2023-11-19T03:40:53;25.80;;;3.45;;
76786;SDS011;65739;51.482;5.702;2023-11-19T03:43:19;24.02;;;3.60;;
76786;SDS011;65739;51.482;5.702;2023-11-19T03:45:44;23.15;;;3.55;;
76786;SDS011;65739;51.482;5.702;2023-11-19T03:48:11;27.90;;;3.45;;
76786;SDS011;65739;51.482;5.702;2023-11-19T03:50:36;28.70;;;4.07;;
76786;SDS011;65739;51.482;5.702;2023-11-19T03:53:02;27.17;;;4.47;;
76786;SDS011;65739;51.482;5.702;2023-11-19T03:55:27;29.40;;;4.25;;
76786;SDS011;65739;51.482;5.702;2023-11-19T03:57:54;24.27;;;3.78;;
76786;SDS011;65739;51.482;5.702;2023-11-19T04:00:20;30.15;;;3.88;;
76786;SDS011;65739;51.482;5.702;2023-11-19T04:02:46;37.28;;;5.63;;
76786;SDS011;65739;51.482;5.702;2023-11-19T04:05:12;26.95;;;4.22;;
76786;SDS011;65739;51.482;5.702;2023-11-19T04:07:37;27.50;;;4.70;;
76786;SDS011;65739;51.482;5.702;2023-11-19T04:10:03;24.92;;;4.25;;
76786;SDS011;65739;51.482;5.702;2023-11-19T04:12:29;30.98;;;4.05;;
76786;SDS011;65739;51.482;5.702;2023-11-19T04:14:55;31.17;;;4.35;;
76786;SDS011;65739;51.482;5.702;2023-11-19T04:17:21;33.33;;;4.30;;
76786;SDS011;65739;51.482;5.702;2023-11-19T04:19:48;29.75;;;4.55;;
76786;SDS011;65739;51.482;5.702;2023-11-19T04:22:13;33.22;;;3.55;;
76786;SDS011;65739;51.482;5.702;2023-11-19T04:24:39;27.98;;;4.78;;
76786;SDS011;65739;51.482;5.702;2023-11-19T04:27:05;25.73;;;4.75;;
76786;SDS011;65739;51.482;5.702;2023-11-19T04:29:31;32.63;;;4.57;;
76786;SDS011;65739;51.482;5.702;2023-11-19T04:31:57;29.60;;;3.70;;
76786;SDS011;65739;51.482;5.702;2023-11-19T04:34:24;26.33;;;4.47;;
76786;SDS011;65739;51.482;5.702;2023-11-19T04:36:49;31.80;;;4.57;;
76786;SDS011;65739;51.482;5.702;2023-11-19T04:39:15;25.50;;;3.92;;
76786;SDS011;65739;51.482;5.702;2023-11-19T04:41:50;27.35;;;4.13;;
76786;SDS011;65739;51.482;5.702;2023-11-19T04:44:19;33.17;;;5.32;;
76786;SDS011;65739;51.482;5.702;2023-11-19T04:46:45;37.75;;;5.60;;
76786;SDS011;65739;51.482;5.702;2023-11-19T04:49:12;29.35;;;4.05;;
76786;SDS011;65739;51.482;5.702;2023-11-19T04:51:42;31.42;;;4.95;;
76786;SDS011;65739;51.482;5.702;2023-11-19T04:54:09;33.28;;;4.95;;
76786;SDS011;65739;51.482;5.702;2023-11-19T04:56:35;26.65;;;4.05;;
76786;SDS011;65739;51.482;5.702;2023-11-19T04:59:02;22.40;;;3.78;;
76786;SDS011;65739;51.482;5.702;2023-11-19T05:01:28;29.42;;;4.10;;
76786;SDS011;65739;51.482;5.702;2023-11-19T05:03:55;28.23;;;4.25;;
76786;SDS011;65739;51.482;5.702;2023-11-19T05:06:25;27.83;;;4.55;;
76786;SDS011;65739;51.482;5.702;2023-11-19T05:08:55;31.33;;;4.10;;
76786;SDS011;65739;51.482;5.702;2023-11-19T05:11:21;25.20;;;4.22;;
76786;SDS011;65739;51.482;5.702;2023-11-19T05:13:47;24.17;;;3.58;;
76786;SDS011;65739;51.482;5.702;2023-11-19T05:16:12;29.88;;;4.20;;
76786;SDS011;65739;51.482;5.702;2023-11-19T05:18:41;28.60;;;3.97;;
76786;SDS011;65739;51.482;5.702;2023-11-19T05:21:07;33.63;;;4.25;;
76786;SDS011;65739;51.482;5.702;2023-11-19T05:23:33;25.05;;;4.43;;
76786;SDS011;65739;51.482;5.702;2023-11-19T05:25:59;30.42;;;4.00;;
76786;SDS011;65739;51.482;5.702;2023-11-19T05:28:26;27.33;;;3.85;;
76786;SDS011;65739;51.482;5.702;2023-11-19T05:30:51;24.77;;;4.68;;
76786;SDS011;65739;51.482;5.702;2023-11-19T05:33:17;28.30;;;4.15;;
76786;SDS011;65739;51.482;5.702;2023-11-19T05:35:42;33.63;;;5.10;;
76786;SDS011;65739;51.482;5.702;2023-11-19T05:38:08;30.67;;;4.35;;
76786;SDS011;65739;51.482;5.702;2023-11-19T05:40:34;31.38;;;5.07;;
76786;SDS011;65739;51.482;5.702;2023-11-19T05:43:00;32.92;;;4.03;;
76786;SDS011;65739;51.482;5.702;2023-11-19T05:45:26;33.17;;;4.47;;
76786;SDS011;65739;51.482;5.702;2023-11-19T05:47:52;32.22;;;3.80;;
76786;SDS011;65739;51.482;5.702;2023-11-19T05:50:18;33.83;;;4.50;;
76786;SDS011;65739;51.482;5.702;2023-11-19T05:52:43;32.50;;;4.78;;
76786;SDS011;65739;51.482;5.702;2023-11-19T05:55:09;42.60;;;5.35;;
76786;SDS011;65739;51.482;5.702;2023-11-19T05:57:36;34.40;;;5.35;;
76786;SDS011;65739;51.482;5.702;2023-11-19T06:00:02;31.80;;;4.15;;
76786;SDS011;65739;51.482;5.702;2023-11-19T06:02:32;25.42;;;4.32;;
76786;SDS011;65739;51.482;5.702;2023-11-19T06:04:59;32.15;;;4.28;;
76786;SDS011;65739;51.482;5.702;2023-11-19T06:07:25;20.63;;;3.95;;
76786;SDS011;65739;51.482;5.702;2023-11-19T06:09:51;27.88;;;3.60;;
76786;SDS011;65739;51.482;5.702;2023-11-19T06:12:17;31.98;;;4.90;;
76786;SDS011;65739;51.482;5.702;2023-11-19T06:14:42;36.33;;;3.72;;
76786;SDS011;65739;51.482;5.702;2023-11-19T06:17:10;29.98;;;4.25;;
76786;SDS011;65739;51.482;5.702;2023-11-19T06:19:36;33.45;;;4.28;;
76786;SDS011;65739;51.482;5.702;2023-11-19T06:22:03;29.30;;;4.45;;
76786;SDS011;65739;51.482;5.702;2023-11-19T06:24:29;39.75;;;4.55;;
76786;SDS011;65739;51.482;5.702;2023-11-19T06:27:03;25.58;;;4.07;;
76786;SDS011;65739;51.482;5.702;2023-11-19T06:29:29;38.05;;;4.32;;
76786;SDS011;65739;51.482;5.702;2023-11-19T06:31:55;35.70;;;4.40;;
76786;SDS011;65739;51.482;5.702;2023-11-19T06:34:20;26.45;;;4.18;;
76786;SDS011;65739;51.482;5.702;2023-11-19T06:36:46;37.75;;;4.88;;
76786;SDS011;65739;51.482;5.702;2023-11-19T06:39:13;26.73;;;4.53;;
76786;SDS011;65739;51.482;5.702;2023-11-19T06:41:44;29.35;;;3.80;;
76786;SDS011;65739;51.482;5.702;2023-11-19T06:44:10;29.35;;;3.85;;
76786;SDS011;65739;51.482;5.702;2023-11-19T06:46:35;37.20;;;4.90;;
76786;SDS011;65739;51.482;5.702;2023-11-19T06:49:01;31.25;;;4.13;;
76786;SDS011;65739;51.482;5.702;2023-11-19T06:51:27;35.25;;;5.20;;
76786;SDS011;65739;51.482;5.702;2023-11-19T06:53:52;25.55;;;3.53;;
76786;SDS011;65739;51.482;5.702;2023-11-19T06:56:21;31.63;;;4.47;;
76786;SDS011;65739;51.482;5.702;2023-11-19T06:58:49;38.30;;;4.43;;
76786;SDS011;65739;51.482;5.702;2023-11-19T07:01:18;29.23;;;4.05;;
76786;SDS011;65739;51.482;5.702;2023-11-19T07:03:45;30.10;;;5.07;;
76786;SDS011;65739;51.482;5.702;2023-11-19T07:06:11;32.85;;;4.68;;
76786;SDS011;65739;51.482;5.702;2023-11-19T07:08:38;28.85;;;4.60;;
76786;SDS011;65739;51.482;5.702;2023-11-19T07:11:04;28.60;;;4.15;;
76786;SDS011;65739;51.482;5.702;2023-11-19T07:13:36;28.88;;;4.75;;
76786;SDS011;65739;51.482;5.702;2023-11-19T07:16:02;35.78;;;4.55;;
76786;SDS011;65739;51.482;5.702;2023-11-19T07:18:28;35.88;;;4.82;;
76786;SDS011;65739;51.482;5.702;2023-11-19T07:20:57;29.05;;;5.18;;
76786;SDS011;65739;51.482;5.702;2023-11-19T07:23:25;41.67;;;5.00;;
76786;SDS011;65739;51.482;5.702;2023-11-19T07:25:51;30.55;;;3.92;;
76786;SDS011;65739;51.482;5.702;2023-11-19T07:28:18;32.03;;;4.22;;
76786;SDS011;65739;51.482;5.702;2023-11-19T07:30:44;33.22;;;4.10;;
76786;SDS011;65739;51.482;5.702;2023-11-19T07:33:09;35.28;;;4.72;;
76786;SDS011;65739;51.482;5.702;2023-11-19T07:35:35;28.55;;;4.90;;
76786;SDS011;65739;51.482;5.702;2023-11-19T07:38:00;34.80;;;4.13;;
76786;SDS011;65739;51.482;5.702;2023-11-19T07:40:26;30.58;;;5.03;;
76786;SDS011;65739;51.482;5.702;2023-11-19T07:42:51;27.48;;;4.60;;
76786;SDS011;65739;51.482;5.702;2023-11-19T07:45:17;24.27;;;4.00;;
76786;SDS011;65739;51.482;5.702;2023-11-19T07:47:43;32.75;;;4.18;;
76786;SDS011;65739;51.482;5.702;2023-11-19T07:50:11;26.48;;;4.22;;
76786;SDS011;65739;51.482;5.702;2023-11-19T07:52:39;24.13;;;4.20;;
76786;SDS011;65739;51.482;5.702;2023-11-19T07:55:05;28.13;;;4.18;;
76786;SDS011;65739;51.482;5.702;2023-11-19T07:57:31;34.95;;;5.15;;
76786;SDS011;65739;51.482;5.702;2023-11-19T07:59:57;31.17;;;4.72;;
76786;SDS011;65739;51.482;5.702;2023-11-19T08:02:22;34.08;;;4.57;;
76786;SDS011;65739;51.482;5.702;2023-11-19T08:04:49;42.53;;;4.40;;
76786;SDS011;65739;51.482;5.702;2023-11-19T08:07:16;28.45;;;5.47;;
76786;SDS011;65739;51.482;5.702;2023-11-19T08:09:43;26.73;;;4.75;;
76786;SDS011;65739;51.482;5.702;2023-11-19T08:12:08;35.95;;;4.97;;
76786;SDS011;65739;51.482;5.702;2023-11-19T08:14:34;34.10;;;4.50;;
76786;SDS011;65739;51.482;5.702;2023-11-19T08:17:00;30.30;;;4.63;;
76786;SDS011;65739;51.482;5.702;2023-11-19T08:19:26;24.23;;;3.88;;
76786;SDS011;65739;51.482;5.702;2023-11-19T08:21:51;36.58;;;5.10;;
76786;SDS011;65739;51.482;5.702;2023-11-19T08:24:17;24.55;;;4.20;;
76786;SDS011;65739;51.482;5.702;2023-11-19T08:26:42;32.67;;;5.53;;
76786;SDS011;65739;51.482;5.702;2023-11-19T08:29:08;33.33;;;4.15;;
76786;SDS011;65739;51.482;5.702;2023-11-19T08:31:36;27.67;;;4.28;;
76786;SDS011;65739;51.482;5.702;2023-11-19T08:34:04;32.38;;;4.78;;
76786;SDS011;65739;51.482;5.702;2023-11-19T08:36:33;26.15;;;4.50;;
76786;SDS011;65739;51.482;5.702;2023-11-19T08:38:59;29.05;;;4.13;;
76786;SDS011;65739;51.482;5.702;2023-11-19T08:41:25;25.30;;;4.82;;
76786;SDS011;65739;51.482;5.702;2023-11-19T08:43:50;26.83;;;3.55;;
76786;SDS011;65739;51.482;5.702;2023-11-19T08:46:16;36.58;;;4.60;;
76786;SDS011;65739;51.482;5.702;2023-11-19T08:48:42;30.70;;;4.20;;
76786;SDS011;65739;51.482;5.702;2023-11-19T08:51:07;29.73;;;4.22;;
76786;SDS011;65739;51.482;5.702;2023-11-19T08:53:33;27.73;;;4.20;;
76786;SDS011;65739;51.482;5.702;2023-11-19T08:55:59;27.27;;;4.47;;
76786;SDS011;65739;51.482;5.702;2023-11-19T08:58:25;31.70;;;4.72;;
76786;SDS011;65739;51.482;5.702;2023-11-19T09:00:51;31.85;;;4.10;;
76786;SDS011;65739;51.482;5.702;2023-11-19T09:03:16;34.53;;;3.90;;
76786;SDS011;65739;51.482;5.702;2023-11-19T09:05:42;26.85;;;4.40;;
76786;SDS011;65739;51.482;5.702;2023-11-19T09:08:07;34.33;;;4.63;;
76786;SDS011;65739;51.482;5.702;2023-11-19T09:10:33;28.55;;;4.28;;
76786;SDS011;65739;51.482;5.702;2023-11-19T09:12:59;26.63;;;4.43;;
76786;SDS011;65739;51.482;5.702;2023-11-19T09:15:24;27.20;;;3.83;;
76786;SDS011;65739;51.482;5.702;2023-11-19T09:17:50;25.27;;;4.65;;
76786;SDS011;65739;51.482;5.702;2023-11-19T09:20:15;25.75;;;3.90;;
76786;SDS011;65739;51.482;5.702;2023-11-19T09:22:41;26.10;;;4.20;;
76786;SDS011;65739;51.482;5.702;2023-11-19T09:25:07;31.60;;;5.25;;
76786;SDS011;65739;51.482;5.702;2023-11-19T09:27:33;26.65;;;4.28;;
76786;SDS011;65739;51.482;5.702;2023-11-19T09:29:58;30.02;;;5.32;;
76786;SDS011;65739;51.482;5.702;2023-11-19T09:32:24;21.85;;;4.05;;
76786;SDS011;65739;51.482;5.702;2023-11-19T09:34:50;38.00;;;4.28;;
76786;SDS011;65739;51.482;5.702;2023-11-19T09:37:16;33.33;;;4.78;;
76786;SDS011;65739;51.482;5.702;2023-11-19T09:39:41;28.77;;;4.05;;
76786;SDS011;65739;51.482;5.702;2023-11-19T09:42:10;32.28;;;5.15;;
76786;SDS011;65739;51.482;5.702;2023-11-19T09:44:36;30.08;;;4.38;;
76786;SDS011;65739;51.482;5.702;2023-11-19T09:47:04;30.92;;;4.40;;
76786;SDS011;65739;51.482;5.702;2023-11-19T09:49:30;35.15;;;5.43;;
76786;SDS011;65739;51.482;5.702;2023-11-19T09:51:56;23.77;;;4.20;;
76786;SDS011;65739;51.482;5.702;2023-11-19T09:54:22;31.42;;;4.22;;
76786;SDS011;65739;51.482;5.702;2023-11-19T09:56:48;26.92;;;4.03;;
76786;SDS011;65739;51.482;5.702;2023-11-19T09:59:14;29.10;;;4.53;;
76786;SDS011;65739;51.482;5.702;2023-11-19T10:01:40;30.40;;;4.95;;
76786;SDS011;65739;51.482;5.702;2023-11-19T10:04:07;24.20;;;4.38;;
76786;SDS011;65739;51.482;5.702;2023-11-19T10:06:34;30.63;;;5.32;;
76786;SDS011;65739;51.482;5.702;2023-11-19T10:09:00;29.23;;;4.90;;
76786;SDS011;65739;51.482;5.702;2023-11-19T10:11:26;22.88;;;4.18;;
76786;SDS011;65739;51.482;5.702;2023-11-19T10:13:52;29.45;;;4.53;;
76786;SDS011;65739;51.482;5.702;2023-11-19T10:16:18;28.40;;;3.85;;
76786;SDS011;65739;51.482;5.702;2023-11-19T10:18:45;22.60;;;4.28;;
76786;SDS011;65739;51.482;5.702;2023-11-19T10:21:14;28.92;;;4.53;;
76786;SDS011;65739;51.482;5.702;2023-11-19T10:26:19;23.98;;;3.80;;
76786;SDS011;65739;51.482;5.702;2023-11-19T10:28:45;30.10;;;3.95;;
76786;SDS011;65739;51.482;5.702;2023-11-19T10:31:15;21.52;;;4.20;;
76786;SDS011;65739;51.482;5.702;2023-11-19T10:33:41;30.52;;;4.18;;
76786;SDS011;65739;51.482;5.702;2023-11-19T10:36:09;24.45;;;4.63;;
76786;SDS011;65739;51.482;5.702;2023-11-19T10:38:37;26.30;;;4.00;;
76786;SDS011;65739;51.482;5.702;2023-11-19T10:41:03;30.67;;;4.25;;
76786;SDS011;65739;51.482;5.702;2023-11-19T10:43:30;30.20;;;3.88;;
76786;SDS011;65739;51.482;5.702;2023-11-19T10:46:17;29.92;;;4.40;;
76786;SDS011;65739;51.482;5.702;2023-11-19T10:48:45;17.67;;;4.18;;
76786;SDS011;65739;51.482;5.702;2023-11-19T10:51:11;28.02;;;3.90;;
76786;SDS011;65739;51.482;5.702;2023-11-19T10:53:46;27.08;;;3.85;;
76786;SDS011;65739;51.482;5.702;2023-11-19T10:56:13;23.55;;;4.07;;
76786;SDS011;65739;51.482;5.702;2023-11-19T10:58:44;25.85;;;3.83;;
76786;SDS011;65739;51.482;5.702;2023-11-19T11:01:16;29.02;;;3.78;;
76786;SDS011;65739;51.482;5.702;2023-11-19T11:03:45;25.67;;;3.92;;
76786;SDS011;65739;51.482;5.702;2023-11-19T11:06:12;21.80;;;3.60;;
76786;SDS011;65739;51.482;5.702;2023-11-19T11:08:38;23.15;;;3.40;;
76786;SDS011;65739;51.482;5.702;2023-11-19T11:11:04;24.38;;;3.42;;
76786;SDS011;65739;51.482;5.702;2023-11-19T11:13:32;28.73;;;4.40;;
76786;SDS011;65739;51.482;5.702;2023-11-19T11:15:59;16.15;;;3.17;;
76786;SDS011;65739;51.482;5.702;2023-11-19T11:18:25;23.77;;;4.03;;
76786;SDS011;65739;51.482;5.702;2023-11-19T11:21:03;21.25;;;3.60;;
76786;SDS011;65739;51.482;5.702;2023-11-19T11:23:36;23.35;;;3.65;;
76786;SDS011;65739;51.482;5.702;2023-11-19T11:32:04;25.75;;;3.70;;
76786;SDS011;65739;51.482;5.702;2023-11-19T11:37:45;21.75;;;4.03;;
76786;SDS011;65739;51.482;5.702;2023-11-19T11:40:16;16.42;;;3.50;;
76786;SDS011;65739;51.482;5.702;2023-11-19T11:42:43;25.27;;;3.78;;
76786;SDS011;65739;51.482;5.702;2023-11-19T11:45:10;23.10;;;3.50;;
76786;SDS011;65739;51.482;5.702;2023-11-19T11:50:09;21.23;;;3.13;;
76786;SDS011;65739;51.482;5.702;2023-11-19T11:58:01;19.27;;;3.20;;
76786;SDS011;65739;51.482;5.702;2023-11-19T12:03:03;20.27;;;3.40;;
76786;SDS011;65739;51.482;5.702;2023-11-19T12:05:30;20.38;;;3.60;;
76786;SDS011;65739;51.482;5.702;2023-11-19T12:10:26;18.92;;;2.80;;
76786;SDS011;65739;51.482;5.702;2023-11-19T12:12:59;15.63;;;3.13;;
76786;SDS011;65739;51.482;5.702;2023-11-19T12:15:26;16.13;;;2.63;;
76786;SDS011;65739;51.482;5.702;2023-11-19T12:17:52;19.25;;;3.60;;
76786;SDS011;65739;51.482;5.702;2023-11-19T12:20:22;23.98;;;3.67;;
76786;SDS011;65739;51.482;5.702;2023-11-19T12:22:49;19.08;;;3.10;;
76786;SDS011;65739;51.482;5.702;2023-11-19T12:25:16;21.08;;;3.58;;
76786;SDS011;65739;51.482;5.702;2023-11-19T12:27:44;19.35;;;2.95;;
76786;SDS011;65739;51.482;5.702;2023-11-19T12:30:10;20.23;;;3.28;;
76786;SDS011;65739;51.482;5.702;2023-11-19T12:32:43;23.73;;;3.70;;
76786;SDS011;65739;51.482;5.702;2023-11-19T12:35:09;21.50;;;2.95;;
76786;SDS011;65739;51.482;5.702;2023-11-19T12:37:39;21.58;;;3.22;;
76786;SDS011;65739;51.482;5.702;2023-11-19T12:40:15;18.33;;;3.17;;
76786;SDS011;65739;51.482;5.702;2023-11-19T12:42:48;26.40;;;4.30;;
76786;SDS011;65739;51.482;5.702;2023-11-19T12:45:15;22.75;;;3.63;;
76786;SDS011;65739;51.482;5.702;2023-11-19T12:47:41;22.25;;;3.75;;
76786;SDS011;65739;51.482;5.702;2023-11-19T12:50:08;21.13;;;3.47;;
76786;SDS011;65739;51.482;5.702;2023-11-19T12:52:35;27.45;;;4.10;;
76786;SDS011;65739;51.482;5.702;2023-11-19T12:55:05;17.10;;;3.17;;
76786;SDS011;65739;51.482;5.702;2023-11-19T12:57:50;13.23;;;2.80;;
76786;SDS011;65739;51.482;5.702;2023-11-19T13:00:20;21.15;;;3.92;;
76786;SDS011;65739;51.482;5.702;2023-11-19T13:02:47;18.08;;;2.75;;
76786;SDS011;65739;51.482;5.702;2023-11-19T13:05:29;22.60;;;3.83;;
76786;SDS011;65739;51.482;5.702;2023-11-19T13:07:58;21.10;;;3.30;;
76786;SDS011;65739;51.482;5.702;2023-11-19T13:10:25;16.63;;;3.30;;
76786;SDS011;65739;51.482;5.702;2023-11-19T13:13:04;22.38;;;3.63;;
76786;SDS011;65739;51.482;5.702;2023-11-19T13:15:31;22.27;;;3.17;;
76786;SDS011;65739;51.482;5.702;2023-11-19T13:17:58;17.30;;;2.90;;
76786;SDS011;65739;51.482;5.702;2023-11-19T13:20:23;17.85;;;3.97;;
76786;SDS011;65739;51.482;5.702;2023-11-19T13:22:56;22.02;;;4.35;;
76786;SDS011;65739;51.482;5.702;2023-11-19T13:25:21;21.58;;;2.92;;
76786;SDS011;65739;51.482;5.702;2023-11-19T13:27:47;21.10;;;3.40;;
76786;SDS011;65739;51.482;5.702;2023-11-19T13:30:13;21.60;;;3.45;;
76786;SDS011;65739;51.482;5.702;2023-11-19T13:32:39;19.05;;;3.22;;
76786;SDS011;65739;51.482;5.702;2023-11-19T13:35:04;18.45;;;3.05;;
76786;SDS011;65739;51.482;5.702;2023-11-19T13:37:33;18.50;;;2.95;;
76786;SDS011;65739;51.482;5.702;2023-11-19T13:39:59;19.75;;;2.72;;
76786;SDS011;65739;51.482;5.702;2023-11-19T13:42:25;24.42;;;2.83;;
76786;SDS011;65739;51.482;5.702;2023-11-19T13:44:50;22.88;;;4.03;;
76786;SDS011;65739;51.482;5.702;2023-11-19T13:47:16;18.50;;;3.00;;
76786;SDS011;65739;51.482;5.702;2023-11-19T13:49:43;27.50;;;3.95;;
76786;SDS011;65739;51.482;5.702;2023-11-19T13:52:10;16.42;;;2.83;;
76786;SDS011;65739;51.482;5.702;2023-11-19T13:54:36;20.27;;;3.47;;
76786;SDS011;65739;51.482;5.702;2023-11-19T13:57:02;18.95;;;3.60;;
76786;SDS011;65739;51.482;5.702;2023-11-19T13:59:29;22.25;;;3.75;;
76786;SDS011;65739;51.482;5.702;2023-11-19T14:01:57;17.95;;;3.35;;
76786;SDS011;65739;51.482;5.702;2023-11-19T14:04:23;24.08;;;3.55;;
76786;SDS011;65739;51.482;5.702;2023-11-19T14:06:48;20.70;;;2.88;;
76786;SDS011;65739;51.482;5.702;2023-11-19T14:09:14;18.90;;;3.13;;
76786;SDS011;65739;51.482;5.702;2023-11-19T14:11:40;17.55;;;3.13;;
76786;SDS011;65739;51.482;5.702;2023-11-19T14:14:07;18.50;;;3.10;;
76786;SDS011;65739;51.482;5.702;2023-11-19T14:16:33;29.10;;;3.15;;
76786;SDS011;65739;51.482;5.702;2023-11-19T14:18:59;20.75;;;2.58;;
76786;SDS011;65739;51.482;5.702;2023-11-19T14:21:25;23.23;;;3.38;;
76786;SDS011;65739;51.482;5.702;2023-11-19T14:23:51;16.40;;;3.42;;
76786;SDS011;65739;51.482;5.702;2023-11-19T14:26:17;18.40;;;3.85;;
76786;SDS011;65739;51.482;5.702;2023-11-19T14:28:43;17.45;;;2.80;;
76786;SDS011;65739;51.482;5.702;2023-11-19T14:31:09;20.38;;;3.08;;
76786;SDS011;65739;51.482;5.702;2023-11-19T14:33:34;19.90;;;2.58;;
76786;SDS011;65739;51.482;5.702;2023-11-19T14:36:03;15.98;;;2.35;;
76786;SDS011;65739;51.482;5.702;2023-11-19T14:38:29;16.05;;;2.90;;
76786;SDS011;65739;51.482;5.702;2023-11-19T14:40:55;15.43;;;3.35;;
76786;SDS011;65739;51.482;5.702;2023-11-19T14:43:20;15.30;;;3.03;;
76786;SDS011;65739;51.482;5.702;2023-11-19T14:45:46;17.00;;;2.70;;
76786;SDS011;65739;51.482;5.702;2023-11-19T14:48:11;17.75;;;3.08;;
76786;SDS011;65739;51.482;5.702;2023-11-19T14:50:37;19.15;;;2.95;;
76786;SDS011;65739;51.482;5.702;2023-11-19T14:53:02;17.63;;;3.53;;
76786;SDS011;65739;51.482;5.702;2023-11-19T14:55:28;18.50;;;2.60;;
76786;SDS011;65739;51.482;5.702;2023-11-19T14:57:54;13.77;;;2.78;;